Time;durP1;ratioP1;P1;durP2;ratioP2;P2;SDS_P1;SDS_P2;PMS_P1;PMS_P2;Temp;Humidity;BMP_temperature;BMP_pressure;BME280_temperature;BME280_humidity;BME280_pressure;Samples;Min_cycle;Max_cycle;Signal;HPM_P1;HPM_P2
2023/03/13 06:36:42;;;;;;;0.70;0.70;;;;;;;10.78;89.76;94713.69;5247951;22;20233;-86
2023/03/13 06:43:56;;;;;;;;;;;;;;;;;;;;;
2023/03/13 06:54:34;;;;;;;;;;;;;;;;;;;;;
2023/03/13 07:18:23;;;;;;;1.50;0.40;;;;;;;11.04;90.30;94709.00;4741896;30;20610;-83
2023/03/13 07:21:23;;;;;;;0.43;0.43;;;;;;;11.01;89.53;94708.50;4764688;30;20211;-85
2023/03/13 07:28:14;;;;;;;;;;;;;;;;;;;;;
2023/03/13 07:44:46;;;;;;;;;;;;;;;;;;;;;
2023/03/13 07:51:48;;;;;;;;;;;;;;;;;;;;;
2023/03/13 08:11:35;;;;;;;0.73;0.70;;;;;;;11.71;81.25;94679.78;4832157;29;20212;-86
2023/03/13 10:25:40;;;;;;;3.20;1.60;;;;;;;14.69;65.86;94667.34;3157069;23;20728;-81
2023/03/13 10:28:11;;;;;;;3.53;2.53;;;;;;;14.35;66.35;94653.28;5023592;28;20209;-80
2023/03/13 10:30:42;;;;;;;5.40;2.10;;;;;;;14.44;66.96;94670.41;5035180;28;20182;-79
2023/03/13 10:33:07;;;;;;;3.20;1.57;;;;;;;14.67;65.76;94648.44;5012947;28;20229;-81
2023/03/13 10:35:38;;;;;;;2.77;1.50;;;;;;;14.78;65.12;94650.50;5046226;28;20198;-81
2023/03/13 10:38:24;;;;;;;4.90;1.70;;;;;;;14.85;65.49;94650.53;5028017;28;20216;-80
2023/03/13 10:40:57;;;;;;;3.10;1.33;;;;;;;14.59;65.22;94633.75;5028872;28;20202;-81
2023/03/13 10:43:24;;;;;;;2.30;1.40;;;;;;;14.73;65.42;94626.75;5015025;28;20233;-79
2023/03/13 10:45:50;;;;;;;1.97;1.50;;;;;;;15.07;64.10;94633.69;5032855;28;20328;-80
2023/03/13 10:48:23;;;;;;;3.20;1.50;;;;;;;14.90;64.49;94646.31;5008673;28;20194;-79
2023/03/13 10:50:50;;;;;;;1.63;1.43;;;;;;;14.86;65.04;94655.56;5014454;28;20244;-80
2023/03/13 10:53:19;;;;;;;2.60;1.30;;;;;;;14.77;65.60;94654.13;5014972;28;20183;-82
2023/03/13 10:55:46;;;;;;;2.07;1.50;;;;;;;14.65;66.61;94645.19;5047735;28;21661;-85
2023/03/13 10:58:22;;;;;;;1.73;1.60;;;;;;;14.02;67.64;94633.97;5032037;28;20190;-85
2023/03/13 11:00:48;;;;;;;4.23;1.83;;;;;;;14.01;68.48;94638.38;5016992;28;20197;-81
2023/03/13 11:03:19;;;;;;;2.90;1.40;;;;;;;14.31;67.67;94639.00;5017698;28;20186;-83
2023/03/13 11:05:57;;;;;;;2.47;1.27;;;;;;;14.24;67.89;94622.47;5029175;28;20193;-84
2023/03/13 11:08:31;;;;;;;3.43;1.37;;;;;;;14.18;67.83;94623.25;5036865;28;20247;-85
2023/03/13 11:10:59;;;;;;;1.40;1.30;;;;;;;14.19;68.20;94622.25;5022720;28;20197;-83
2023/03/13 11:13:38;;;;;;;2.17;1.60;;;;;;;14.52;67.56;94613.81;5031661;28;20240;-83
2023/03/13 11:54:02;;;;;;;2.35;1.10;;;;;;;16.39;61.12;94522.91;5048918;28;20223;-83
2023/03/13 12:00:40;;;;;;;;;;;;;;;;;;;;;
2023/03/13 12:03:47;;;;;;;4.72;2.67;;;;;;;16.19;61.68;94509.09;4949014;28;20192;-83
2023/03/13 12:19:56;;;;;;;2.00;1.60;;;;;;;16.60;60.32;94467.53;5024037;28;20667;-84
2023/03/13 12:23:04;;;;;;;4.97;1.92;;;;;;;16.72;59.63;94459.06;5032018;28;20666;-83
2023/03/13 12:25:33;;;;;;;3.63;1.40;;;;;;;16.56;60.63;94457.72;5048617;28;20637;-83
2023/03/13 12:28:40;;;;;;;3.15;2.15;;;;;;;17.22;58.48;94444.13;5027940;28;20206;-82
2023/03/13 12:38:11;;;;;;;3.45;1.75;;;;;;;17.37;57.00;94415.75;5042432;23;20566;-80
2023/03/13 12:41:23;;;;;;;;;;;;;;;;;;;;;
2023/03/13 12:52:20;;;;;;;1.58;1.48;;;;;;;17.88;54.56;94370.00;5029242;28;20222;-83
2023/03/13 12:55:17;;;;;;;2.25;1.35;;;;;;;17.70;54.39;94373.44;5016450;28;20203;-82
2023/03/13 12:58:16;;;;;;;3.10;1.50;;;;;;;17.79;52.86;94371.31;5043580;28;20209;-84
2023/03/13 13:00:44;;;;;;;2.50;1.10;;;;;;;18.14;52.40;94357.53;5048175;28;20230;-84
2023/03/13 13:03:15;;;;;;;2.70;1.15;;;;;;;17.91;52.37;94355.59;5013510;28;20182;-82
2023/03/13 13:05:57;;;;;;;2.88;1.40;;;;;;;18.04;50.93;94360.72;5052893;28;20183;-83
2023/03/13 13:08:36;;;;;;;3.45;2.25;;;;;;;18.14;50.79;94349.66;5019310;28;20209;-82
2023/03/13 13:11:32;;;;;;;6.47;2.85;;;;;;;18.78;50.03;94341.03;5037625;28;20177;-83
2023/03/13 13:13:58;;;;;;;3.45;1.80;;;;;;;18.84;49.92;94334.88;5046680;28;20217;-83
2023/03/13 13:16:25;;;;;;;4.65;1.70;;;;;;;18.88;49.68;94333.38;5029402;28;20209;-82
2023/03/13 13:18:50;;;;;;;6.35;1.20;;;;;;;19.00;49.73;94320.25;5036860;28;20190;-83
2023/03/13 13:21:20;;;;;;;1.77;1.00;;;;;;;19.02;48.95;94309.50;5031557;28;20189;-81
2023/03/13 13:23:46;;;;;;;2.42;1.00;;;;;;;18.89;48.60;94298.16;5019998;28;20205;-83
2023/03/13 13:26:28;;;;;;;1.15;1.00;;;;;;;18.77;48.27;94309.72;5033104;28;20210;-82
2023/03/13 13:28:58;;;;;;;1.38;1.00;;;;;;;18.66;46.81;94300.78;5036519;28;20224;-83
2023/03/13 13:31:43;;;;;;;3.10;0.90;;;;;;;18.92;47.66;94289.81;5031609;28;20203;-82
2023/03/13 13:34:29;;;;;;;1.80;1.10;;;;;;;18.73;47.82;94277.81;5018438;28;20277;-83
2023/03/13 13:36:56;;;;;;;2.83;1.15;;;;;;;18.48;48.56;94285.88;5029917;28;20237;-83
2023/03/13 13:39:33;;;;;;;2.13;0.95;;;;;;;18.68;47.49;94273.22;5034630;28;20209;-82
2023/03/13 13:41:59;;;;;;;1.38;1.00;;;;;;;18.81;48.43;94274.81;5015588;28;20280;-83
2023/03/13 13:44:28;;;;;;;3.13;0.85;;;;;;;18.57;47.81;94278.47;5026754;28;20222;-82
2023/03/13 13:46:55;;;;;;;5.82;3.17;;;;;;;18.55;48.85;94275.25;5048323;28;21663;-83
2023/03/13 13:49:22;;;;;;;3.33;1.10;;;;;;;18.39;48.75;94268.84;5052829;28;20174;-84
2023/03/13 13:52:02;;;;;;;0.75;0.73;;;;;;;17.92;48.49;94266.09;5054225;28;20541;-82
2023/03/13 13:54:32;;;;;;;2.00;1.13;;;;;;;18.14;48.79;94263.75;5030803;28;20209;-83
2023/03/13 13:56:59;;;;;;;2.30;0.88;;;;;;;18.30;48.39;94255.22;5021430;28;20215;-82
2023/03/13 13:59:42;;;;;;;1.25;0.90;;;;;;;18.09;48.65;94250.50;5014779;28;20232;-83
2023/03/13 14:02:07;;;;;;;3.95;2.22;;;;;;;18.14;48.55;94241.94;5037616;28;20250;-83
2023/03/13 14:04:53;;;;;;;2.97;1.80;;;;;;;18.03;48.82;94233.81;5038218;28;20697;-83
2023/03/13 14:07:24;;;;;;;4.03;2.72;;;;;;;18.19;48.50;94229.72;5034789;28;20243;-82
2023/03/13 14:09:57;;;;;;;2.53;1.42;;;;;;;18.03;48.60;94218.06;5026413;28;20193;-85
2023/03/13 14:12:34;;;;;;;1.75;1.25;;;;;;;17.90;48.58;94217.44;5028012;28;20280;-82
2023/03/13 14:15:22;;;;;;;1.50;1.10;;;;;;;17.86;48.63;94221.56;5030256;28;20544;-82
2023/03/13 14:18:11;;;;;;;1.10;0.75;;;;;;;18.05;49.53;94221.25;5016729;28;20212;-86
2023/03/13 14:33:00;;;;;;;1.60;1.10;;;;;;;18.61;48.29;94190.22;5266501;22;20310;-86
2023/03/13 14:46:28;;;;;;;1.67;0.80;;;;;;;18.28;47.71;94154.78;5067001;23;20229;-87
2023/03/13 14:48:54;;;;;;;1.17;0.98;;;;;;;18.21;48.53;94145.44;4972658;28;20937;-82
2023/03/13 14:51:23;;;;;;;2.25;0.90;;;;;;;18.48;48.63;94128.16;4974140;28;20204;-82
2023/03/13 14:53:56;;;;;;;0.70;0.70;;;;;;;18.52;47.92;94128.50;4954751;28;20194;-82
2023/03/13 14:56:31;;;;;;;3.35;0.82;;;;;;;18.55;47.88;94112.25;4951612;28;20205;-82
2023/03/13 14:59:15;;;;;;;3.05;0.85;;;;;;;18.48;48.15;94109.78;4945308;28;20255;-82
2023/03/13 15:01:40;;;;;;;1.50;1.00;;;;;;;18.50;48.57;94102.44;4973357;28;20194;-83
2023/03/13 15:04:06;;;;;;;1.70;0.80;;;;;;;18.34;47.67;94101.31;4948665;29;20323;-82
2023/03/13 15:06:31;;;;;;;2.17;0.90;;;;;;;18.35;47.88;94086.34;4929375;28;20295;-83
2023/03/13 15:09:08;;;;;;;1.08;0.98;;;;;;;18.47;48.27;94078.47;4955673;28;20251;-82
2023/03/13 15:11:34;;;;;;;3.28;0.77;;;;;;;18.29;47.79;94063.66;4969157;28;20200;-82
2023/03/13 15:14:00;;;;;;;1.13;0.70;;;;;;;18.42;48.28;94060.75;4952916;28;20236;-82
2023/03/13 15:16:26;;;;;;;1.20;1.00;;;;;;;18.37;48.28;94053.53;4971703;28;20232;-82
2023/03/13 15:18:55;;;;;;;2.25;1.20;;;;;;;18.16;47.99;94051.53;4968200;28;20193;-84
2023/03/13 15:21:26;;;;;;;2.58;1.23;;;;;;;18.30;47.69;94046.84;4972794;28;20219;-85
2023/03/13 15:23:55;;;;;;;1.52;1.05;;;;;;;18.33;48.63;94033.22;4956451;28;21027;-84
2023/03/13 15:26:32;;;;;;;3.70;1.10;;;;;;;18.11;48.19;94027.81;5032301;28;20950;-86
2023/03/13 15:29:08;;;;;;;1.20;0.80;;;;;;;18.27;47.85;94024.44;5017413;28;20202;-90
2023/03/13 15:34:39;;;;;;;;;;;;;;;;;;;;;
2023/03/13 15:37:16;;;;;;;0.90;0.90;;;;;;;18.11;47.92;94004.16;5025289;28;20211;-86
2023/03/13 15:40:10;;;;;;;;;;;;;;;;;;;;;
2023/03/13 15:42:55;;;;;;;1.23;0.90;;;;;;;18.28;48.54;93991.88;5036602;28;20265;-86
2023/03/13 15:45:50;;;;;;;1.73;1.00;;;;;;;18.06;48.84;93977.78;5018230;28;20197;-87
2023/03/13 15:48:28;;;;;;;1.75;1.30;;;;;;;18.05;49.07;93966.47;5031732;28;20187;-86
2023/03/13 15:51:14;;;;;;;2.97;1.00;;;;;;;18.38;48.38;93963.19;5015986;28;20197;-86
2023/03/13 15:53:46;;;;;;;2.00;1.00;;;;;;;18.22;48.58;93947.34;5047540;28;20198;-87
2023/03/13 15:56:14;;;;;;;2.88;0.93;;;;;;;18.26;48.34;93966.88;5036686;28;20260;-85
2023/03/13 15:58:52;;;;;;;2.15;0.90;;;;;;;18.32;48.03;93956.22;5034242;28;20209;-87
2023/03/13 16:01:29;;;;;;;2.10;0.77;;;;;;;18.44;48.26;93943.03;5016964;28;20193;-87
2023/03/13 16:04:15;;;;;;;1.45;1.10;;;;;;;18.10;48.64;93944.75;5022430;28;20292;-84
2023/03/13 16:06:43;;;;;;;0.88;0.80;;;;;;;17.97;48.68;93937.13;5035195;28;20345;-87
2023/03/13 16:09:26;;;;;;;2.72;1.00;;;;;;;17.88;49.04;93928.81;5023751;28;20210;-85
2023/03/13 16:11:51;;;;;;;1.10;0.93;;;;;;;17.78;49.49;93924.16;5017338;28;20239;-85
2023/03/13 16:14:19;;;;;;;1.67;1.25;;;;;;;17.70;50.51;93927.13;5037720;28;20186;-87
2023/03/13 16:16:51;;;;;;;0.95;0.75;;;;;;;17.55;49.98;93924.16;5013668;28;20202;-86
2023/03/13 16:19:16;;;;;;;1.10;0.98;;;;;;;17.58;50.04;93926.34;5032610;28;20263;-85
2023/03/13 16:21:47;;;;;;;1.20;0.90;;;;;;;17.48;51.02;93912.97;5032318;28;20178;-88
2023/03/13 16:24:38;;;;;;;1.27;1.00;;;;;;;17.61;50.92;93912.75;5007031;28;20256;-84
2023/03/13 16:27:17;;;;;;;2.58;2.33;;;;;;;17.46;51.03;93905.34;5009559;28;20216;-87
2023/03/13 16:29:44;;;;;;;2.25;1.00;;;;;;;17.37;51.14;93913.78;5017570;28;20177;-83
2023/03/13 16:32:17;;;;;;;1.85;1.60;;;;;;;17.32;51.57;93911.84;5034037;28;20182;-82
2023/03/13 16:34:42;;;;;;;0.95;0.90;;;;;;;17.48;51.23;93910.34;5013940;28;20178;-82
2023/03/13 16:37:24;;;;;;;1.98;1.02;;;;;;;17.35;51.90;93897.47;5034961;28;20255;-85
2023/03/13 16:39:53;;;;;;;1.83;1.20;;;;;;;17.13;51.79;93902.47;5019777;28;20760;-86
2023/03/13 16:47:09;;;;;;;1.98;1.10;;;;;;;17.07;52.82;93903.41;4971058;28;20319;-86
2023/03/13 16:53:42;;;;;;;1.65;0.98;;;;;;;16.96;52.83;93903.19;4916695;29;20649;-85
2023/03/13 17:10:31;;;;;;;1.33;1.23;;;;;;;16.77;54.29;93869.41;4879973;29;20206;-86
2023/03/13 17:40:05;;;;;;;2.58;2.30;;;;;;;16.08;56.38;93850.66;5059566;26;20221;-90
2023/03/13 17:42:37;;;;;;;4.43;2.42;;;;;;;16.00;57.25;93832.63;5035685;28;20688;-85
2023/03/13 17:45:03;;;;;;;3.90;3.45;;;;;;;15.95;57.32;93809.72;5038799;28;20206;-85
2023/03/13 17:47:29;;;;;;;3.97;2.45;;;;;;;15.91;58.82;93794.72;5025956;28;20674;-84
2023/03/13 17:49:57;;;;;;;3.25;2.70;;;;;;;15.83;59.47;93787.97;5031884;28;20264;-86
2023/03/13 17:52:28;;;;;;;1.90;1.70;;;;;;;15.86;59.49;93787.50;5028329;28;20214;-85
2023/03/13 17:54:56;;;;;;;1.80;1.70;;;;;;;15.75;59.73;93772.56;5039251;28;20185;-85
2023/03/13 17:57:25;;;;;;;2.13;1.75;;;;;;;15.71;58.86;93777.44;5017916;28;20579;-86
2023/03/13 17:59:50;;;;;;;2.35;1.23;;;;;;;15.76;56.72;93768.94;5035619;28;20186;-85
2023/03/13 18:02:16;;;;;;;3.08;1.58;;;;;;;15.88;56.12;93766.34;5022673;28;20196;-84
2023/03/13 18:04:46;;;;;;;1.88;1.13;;;;;;;15.73;57.67;93840.84;5028551;28;20728;-86
2023/03/13 18:07:47;;;;;;;3.00;1.50;;;;;;;15.62;64.09;93938.38;5022632;28;20197;-86
2023/03/13 18:51:03;;;;;;;3.40;2.30;;;;;;;12.37;100.00;93829.53;4988513;28;20199;-85
2023/03/13 19:04:19;;;;;;;2.07;1.77;;;;;;;12.27;100.00;93852.53;4845671;29;20246;-85
2023/03/13 19:09:55;;;;;;;3.60;2.30;;;;;;;12.16;100.00;93848.72;5031746;28;20241;-84
2023/03/13 20:41:55;;;;;;;1.10;0.77;;;;;;;9.72;98.00;94089.13;4642990;23;20238;-81
2023/03/13 20:44:21;;;;;;;1.50;0.93;;;;;;;9.55;98.54;94090.25;5032952;28;20210;-85
2023/03/13 20:46:46;;;;;;;2.27;1.40;;;;;;;9.42;97.72;94096.03;5015121;28;20231;-85
2023/03/13 20:49:12;;;;;;;1.70;0.87;;;;;;;9.41;97.98;94084.03;5034692;28;20220;-83
2023/03/13 20:51:38;;;;;;;1.27;0.70;;;;;;;9.46;97.79;94075.75;5018890;28;20193;-85
2023/03/13 20:54:04;;;;;;;0.67;0.50;;;;;;;9.28;98.30;94039.81;5022316;28;20201;-85
2023/03/13 22:30:50;;;;;;;0.70;0.70;;;;;;;8.76;100.00;93987.03;5011890;28;20227;-85
